createdAt,value
2022-08-26T03:41:41.494Z,100037.31
2022-08-26T03:44:44.775Z,100039.50
2022-08-26T03:47:48.097Z,100043.06
2022-08-26T03:50:52.098Z,100036.75
2022-08-26T03:53:54.956Z,100041.38
2022-08-26T03:57:00.178Z,100035.34
2022-08-26T04:00:07.250Z,100039.50
2022-08-26T04:03:14.718Z,100039.22
2022-08-26T04:06:20.974Z,100043.06
2022-08-26T04:09:25.325Z,100041.97
2022-08-26T04:12:28.307Z,100039.50
2022-08-26T04:15:30.845Z,100044.97
2022-08-26T04:18:37.993Z,100034.59
2022-08-26T04:21:52.829Z,100044.19
2022-08-26T04:24:55.781Z,100039.91
2022-08-26T04:27:58.533Z,100040.56
2022-08-26T04:31:01.739Z,100039.47
2022-08-26T04:34:05.752Z,100039.81
2022-08-26T04:37:09.116Z,100031.94
2022-08-26T04:40:15.567Z,100033.91
2022-08-26T04:43:18.416Z,100027.72
2022-08-26T04:46:23.395Z,100040.69
2022-08-26T04:49:27.502Z,100028.50
2022-08-26T04:52:30.288Z,100037.97
2022-08-26T04:55:39.791Z,100039.75
2022-08-26T04:58:48.632Z,100043.47
2022-08-26T05:01:52.961Z,100042.78
2022-08-26T05:04:55.704Z,100043.97
2022-08-26T05:07:58.552Z,100038.88
2022-08-26T05:11:05.090Z,100043.13
2022-08-26T05:14:08.664Z,100037.25
2022-08-26T05:17:14.890Z,100031.91
2022-08-26T05:20:18.711Z,100028.16
2022-08-26T05:23:28.593Z,100037.28
2022-08-26T05:26:32.010Z,100037.41
2022-08-26T05:29:34.705Z,100037.25
2022-08-26T05:32:39.282Z,100042.53
2022-08-26T05:35:43.048Z,100043.19
2022-08-26T05:38:46.643Z,100042.78
2022-08-26T05:41:49.744Z,100039.00
2022-08-26T05:44:55.455Z,100040.47
2022-08-26T05:47:58.768Z,100044.37
2022-08-26T05:51:08.087Z,100047.72
2022-08-26T05:54:11.716Z,100044.53
2022-08-26T05:57:14.777Z,100046.81
2022-08-26T06:00:17.309Z,100048.25
2022-08-26T06:03:20.116Z,100048.25
2022-08-26T06:06:32.781Z,100046.38
2022-08-26T06:09:38.990Z,100054.37
2022-08-26T06:12:42.617Z,100059.62
2022-08-26T06:15:50.269Z,100058.56
2022-08-26T06:18:53.709Z,100052.56
2022-08-26T06:21:56.592Z,100055.59
2022-08-26T06:25:17.886Z,100054.78
2022-08-26T06:28:20.739Z,100061.37
2022-08-26T06:31:25.238Z,100064.66
2022-08-26T06:34:30.341Z,100056.69
2022-08-26T06:37:33.369Z,100058.84
2022-08-26T06:40:47.217Z,100067.03
2022-08-26T06:43:51.416Z,100062.56
2022-08-26T06:46:54.363Z,100062.50
2022-08-26T06:49:57.784Z,100053.63
2022-08-26T06:53:00.799Z,100062.69
2022-08-26T06:56:06.541Z,100059.28
2022-08-26T06:59:12.186Z,100057.53
2022-08-26T07:02:15.280Z,100054.44
2022-08-26T07:05:20.737Z,100056.22
2022-08-26T07:08:23.520Z,100056.44
2022-08-26T07:11:26.417Z,100051.63
2022-08-26T07:14:31.715Z,100048.38
2022-08-26T07:17:34.609Z,100044.94
2022-08-26T07:20:42.507Z,100050.75
2022-08-26T07:23:45.966Z,100054.56
2022-08-26T07:26:49.472Z,100048.47
2022-08-26T07:29:57.361Z,100050.81
2022-08-26T07:33:00.780Z,100055.88
2022-08-26T07:36:04.218Z,100046.87
2022-08-26T07:39:07.061Z,100045.09
2022-08-26T07:42:13.741Z,100042.12
2022-08-26T07:45:16.869Z,100044.28
2022-08-26T07:48:19.904Z,100045.13
2022-08-26T07:51:24.893Z,100042.28
2022-08-26T07:54:28.603Z,100035.62
2022-08-26T07:57:31.335Z,100046.31
2022-08-26T08:00:34.662Z,100036.34
2022-08-26T08:03:38.105Z,100032.16
2022-08-26T08:06:41.691Z,100045.06
2022-08-26T08:09:49.614Z,100045.28
2022-08-26T08:12:52.750Z,100041.69
2022-08-26T08:15:55.644Z,100034.53
2022-08-26T08:18:58.351Z,100023.75
2022-08-26T08:22:05.012Z,100028.84
2022-08-26T08:25:22.884Z,100032.47
2022-08-26T08:28:25.780Z,100024.03
2022-08-26T08:31:56.976Z,100027.78
2022-08-26T08:34:54.366Z,100015.97
2022-08-26T08:37:57.167Z,100026.19
2022-08-26T08:40:59.984Z,100012.88
2022-08-26T08:44:16.196Z,100016.66
2022-08-26T08:47:31.939Z,100016.41
2022-08-26T08:50:43.224Z,100000.53
2022-08-26T08:53:49.467Z,100002.44
2022-08-26T08:57:42.022Z,100005.53
2022-08-26T09:01:09.867Z,100002.16
2022-08-26T09:04:31.167Z,100004.97
2022-08-26T09:07:59.445Z,99999.91
2022-08-26T09:11:04.359Z,99994.94
2022-08-26T09:14:09.142Z,99995.91
2022-08-26T09:17:32.816Z,99988.63
2022-08-26T09:20:52.648Z,99994.88
2022-08-26T09:23:57.018Z,99988.84
2022-08-26T09:27:00.403Z,99986.88
2022-08-26T09:30:04.389Z,99981.47
2022-08-26T09:33:11.028Z,99976.41
2022-08-26T09:36:16.938Z,99972.81
2022-08-26T09:39:38.129Z,99968.56
2022-08-26T09:42:40.853Z,99976.09
2022-08-26T09:45:58.466Z,99977.25
2022-08-26T09:49:36.434Z,99971.53
2022-08-26T09:52:40.416Z,99968.88
2022-08-26T09:55:51.220Z,99971.00
2022-08-26T09:58:55.977Z,99974.25
2022-08-26T10:02:20.306Z,99965.94
2022-08-26T10:05:31.118Z,99963.41
2022-08-26T10:08:41.914Z,99957.59
2022-08-26T10:11:54.177Z,99951.50
2022-08-26T10:15:03.187Z,99959.91
2022-08-26T10:18:33.680Z,99956.56
2022-08-26T10:21:54.083Z,99959.00
2022-08-26T10:25:02.786Z,99950.25
2022-08-26T10:28:22.524Z,99953.72
2022-08-26T10:31:38.138Z,99947.81
2022-08-26T10:34:43.823Z,99945.50
2022-08-26T10:37:50.898Z,99948.22
2022-08-26T10:41:00.833Z,99938.03
2022-08-26T10:44:07.076Z,99940.09
2022-08-26T10:47:16.737Z,99927.91
2022-08-26T10:50:31.345Z,99922.47
2022-08-26T10:53:51.622Z,99911.50
2022-08-26T10:57:17.917Z,99914.78
2022-08-26T11:00:43.996Z,99912.56
2022-08-26T11:04:19.550Z,99916.87
2022-08-26T11:07:37.314Z,99912.28
2022-08-26T11:10:43.199Z,99904.72
2022-08-26T11:14:01.279Z,99901.50
2022-08-26T11:17:11.738Z,99902.28
2022-08-26T11:20:23.860Z,99901.94
2022-08-26T11:23:38.489Z,99901.69
2022-08-26T11:26:56.436Z,99896.34
2022-08-26T11:30:02.158Z,99892.03
2022-08-26T11:33:06.083Z,99887.44
2022-08-26T11:36:12.493Z,99878.09
2022-08-26T11:39:46.279Z,99879.16
2022-08-26T11:42:56.758Z,99871.37
2022-08-26T11:46:06.321Z,99874.03
2022-08-26T11:49:12.972Z,99867.09
2022-08-26T11:52:22.274Z,99864.59
2022-08-26T11:55:25.237Z,99864.19
2022-08-26T11:58:28.984Z,99867.12
2022-08-26T12:01:44.178Z,99860.19
2022-08-26T12:04:50.376Z,99853.66
2022-08-26T12:07:54.598Z,99849.19
2022-08-26T12:11:10.254Z,99848.37
2022-08-26T12:14:22.618Z,99835.53
2022-08-26T12:17:27.773Z,99836.69
2022-08-26T12:20:46.424Z,99838.84
2022-08-26T12:23:52.701Z,99828.06
2022-08-26T12:27:14.231Z,99829.59
2022-08-26T12:30:26.287Z,99823.19
2022-08-26T12:33:29.416Z,99809.84
2022-08-26T12:36:53.902Z,99819.47
2022-08-26T12:40:34.383Z,99812.34
2022-08-26T12:43:43.222Z,99805.66
2022-08-26T12:46:49.722Z,99807.56
2022-08-26T12:50:33.866Z,99801.22
2022-08-26T12:53:43.097Z,99797.75
2022-08-26T12:56:46.165Z,99792.53
2022-08-26T12:59:48.770Z,99789.03
2022-08-26T13:02:52.065Z,99793.63
2022-08-26T13:06:15.561Z,99785.25
2022-08-26T13:09:18.955Z,99784.88
2022-08-26T13:12:32.167Z,99791.81
2022-08-26T13:15:35.034Z,99778.56
2022-08-26T13:18:38.426Z,99770.72
2022-08-26T13:21:47.749Z,99767.31
2022-08-26T13:24:54.347Z,99759.69
2022-08-26T13:27:59.919Z,99759.63
2022-08-26T13:31:04.675Z,99753.81
2022-08-26T13:34:12.132Z,99759.81
2022-08-26T13:37:15.373Z,99760.88
2022-08-26T13:40:18.568Z,99748.94
2022-08-26T13:43:21.212Z,99749.53
2022-08-26T13:46:24.201Z,99757.00
2022-08-26T13:49:26.796Z,99757.59
2022-08-26T13:52:30.877Z,99747.13
2022-08-26T13:55:33.671Z,99741.84
2022-08-26T13:58:36.507Z,99748.59
2022-08-26T14:01:40.165Z,99736.28
2022-08-26T14:04:43.161Z,99731.09
2022-08-26T14:07:45.962Z,99730.69
2022-08-26T14:13:51.353Z,99731.78
2022-08-26T14:17:00.128Z,99730.75
2022-08-26T14:20:04.285Z,99742.87
2022-08-26T14:23:14.613Z,99744.78
2022-08-26T14:26:28.341Z,99746.81
2022-08-26T14:29:34.736Z,99742.03
2022-08-26T14:32:40.581Z,99753.00
2022-08-26T14:35:47.927Z,99763.97
2022-08-26T14:38:51.933Z,99757.09
2022-08-26T14:41:56.563Z,99754.22
2022-08-26T14:45:03.082Z,99746.09
2022-08-26T14:48:06.038Z,99748.94
2022-08-26T14:51:08.645Z,99750.19
2022-08-26T14:54:13.393Z,99756.44
2022-08-26T14:57:16.078Z,99741.00
2022-08-26T15:00:20.789Z,99734.81
2022-08-26T15:03:23.762Z,99734.63
2022-08-26T15:06:28.181Z,99734.53
2022-08-26T15:09:34.160Z,99730.12
2022-08-26T15:12:38.538Z,99735.94
2022-08-26T15:15:41.049Z,99732.59
2022-08-26T15:18:44.257Z,99738.19
2022-08-26T15:21:47.599Z,99725.25
2022-08-26T15:24:53.608Z,99728.22
2022-08-26T15:27:56.596Z,99728.88
2022-08-26T15:31:00.617Z,99726.03
2022-08-26T15:34:06.609Z,99724.47
2022-08-26T15:37:09.795Z,99727.09
2022-08-26T15:40:12.602Z,99725.53
2022-08-26T15:43:28.405Z,99725.06
2022-08-26T15:46:32.368Z,99719.13
2022-08-26T15:49:35.387Z,99723.94
2022-08-26T15:52:38.932Z,99718.78
